Terminal Aerodrome Forecast
Issued by NWS

Home | Current Version | Previous Version | Text Only | Print | Product List | Glossary On
Versions: 1 2 3 4 5 6 7 8 9 10 11 12 13 14 15 16 17 18 19 20 21 22 23 24 25 26
000
FTUS45 KBYZ 101124
TAFLVM
TAF
KLVM 101124Z 1012/1112 30012G19KT P6SM VCSH BKN100
     FM101400 29010KT P6SM SCT100
     FM110100 11009KT P6SM VCSH BKN100
     FM110500 11006KT P6SM SCT100=

USA.gov is the U.S. government's official web portal to all federal, state and local government web resources and services.